Time;durP1;ratioP1;P1;durP2;ratioP2;P2;SDS_P1;SDS_P2;PMS_P1;PMS_P2;Temp;Humidity;BMP_temperature;BMP_pressure;BME280_temperature;BME280_humidity;BME280_pressure;Samples;Min_cycle;Max_cycle;Signal;HPM_P1;HPM_P2
2024/02/01 00:01:44;;;;;;;4.22;3.25;;;19.30;52.40;;;;;;5009214;28;20117;-50
2024/02/01 00:04:10;;;;;;;4.25;3.47;;;19.30;52.50;;;;;;5031326;23;20044;-59
2024/02/01 00:06:35;;;;;;;4.82;3.38;;;19.30;52.40;;;;;;4995601;28;20383;-53
2024/02/01 00:09:01;;;;;;;4.53;3.13;;;19.30;52.50;;;;;;5007328;28;20034;-51
2024/02/01 00:11:26;;;;;;;4.68;3.50;;;19.30;52.50;;;;;;5020822;28;20030;-50
2024/02/01 00:13:52;;;;;;;4.20;2.90;;;19.30;52.40;;;;;;5011667;28;20033;-49
2024/02/01 00:16:21;;;;;;;3.90;3.10;;;19.30;52.40;;;;;;5015447;28;20494;-52
2024/02/01 00:18:47;;;;;;;5.18;3.17;;;19.30;52.40;;;;;;5019996;28;20034;-48
2024/02/01 00:21:13;;;;;;;3.97;3.20;;;19.30;52.40;;;;;;5016272;28;20025;-51
2024/02/01 00:23:38;;;;;;;3.72;3.30;;;19.30;52.50;;;;;;5008814;28;20660;-49
2024/02/01 00:26:04;;;;;;;3.97;2.78;;;19.30;52.40;;;;;;4999329;28;20030;-51
2024/02/01 00:28:31;;;;;;;4.32;3.17;;;19.30;52.40;;;;;;5008158;28;20045;-49
2024/02/01 00:30:56;;;;;;;5.03;3.08;;;19.30;52.50;;;;;;5006454;28;20030;-53
2024/02/01 00:33:22;;;;;;;4.07;3.08;;;19.30;52.40;;;;;;5001633;28;20033;-54
2024/02/01 00:35:47;;;;;;;4.35;3.47;;;19.30;52.50;;;;;;5014048;28;20087;-53
2024/02/01 00:38:13;;;;;;;3.95;2.92;;;19.30;52.40;;;;;;5014725;28;20033;-51
2024/02/01 00:40:38;;;;;;;3.33;2.55;;;19.30;52.40;;;;;;5019830;28;20393;-48
2024/02/01 00:43:04;;;;;;;4.38;3.13;;;19.30;52.40;;;;;;5014307;28;20033;-52
2024/02/01 00:45:29;;;;;;;5.38;3.22;;;19.30;53.10;;;;;;5005368;28;22189;-49
2024/02/01 00:47:55;;;;;;;3.20;2.50;;;19.30;52.50;;;;;;5000790;28;20084;-50
2024/02/01 00:50:20;;;;;;;4.20;2.72;;;19.30;52.40;;;;;;5014035;28;20717;-53
2024/02/01 00:52:46;;;;;;;3.28;2.47;;;19.30;52.50;;;;;;5018828;28;20036;-50
2024/02/01 00:55:12;;;;;;;3.10;2.78;;;19.30;52.40;;;;;;5017983;28;20029;-49
2024/02/01 00:57:37;;;;;;;4.45;2.70;;;19.30;52.40;;;;;;5016228;28;20117;-51
2024/02/01 01:00:04;;;;;;;2.70;2.30;;;19.30;52.40;;;;;;5011121;28;20026;-50
2024/02/01 01:02:30;;;;;;;3.45;2.53;;;19.30;52.40;;;;;;5014231;28;20026;-50
2024/02/01 01:04:55;;;;;;;4.07;2.85;;;19.30;52.50;;;;;;5013203;28;20820;-50
2024/02/01 01:07:21;;;;;;;4.88;3.10;;;19.30;52.50;;;;;;5015771;28;20022;-52
2024/02/01 01:09:47;;;;;;;3.70;2.40;;;19.20;52.50;;;;;;5018325;28;20033;-51
2024/02/01 01:12:13;;;;;;;2.47;2.13;;;19.20;52.60;;;;;;5017341;28;20155;-50
2024/02/01 01:14:38;;;;;;;3.15;2.85;;;19.20;52.60;;;;;;5018610;28;20116;-52
2024/02/01 01:17:04;;;;;;;3.92;2.53;;;19.20;52.70;;;;;;5020048;28;20033;-51
2024/02/01 01:19:29;;;;;;;3.42;2.20;;;19.10;52.80;;;;;;5011385;28;20053;-52
2024/02/01 01:21:58;;;;;;;3.42;2.50;;;19.10;52.90;;;;;;5017786;28;20661;-49
2024/02/01 01:24:24;;;;;;;4.22;2.80;;;19.00;52.90;;;;;;5016276;28;20037;-50
2024/02/01 01:26:49;;;;;;;4.28;2.58;;;19.00;53.00;;;;;;5018722;28;20060;-51
2024/02/01 01:29:15;;;;;;;3.33;2.70;;;18.90;53.00;;;;;;5016677;28;20032;-53
2024/02/01 01:31:42;;;;;;;4.00;2.50;;;18.90;53.10;;;;;;5019838;28;20033;-48
2024/02/01 01:34:07;;;;;;;2.70;2.33;;;18.90;53.30;;;;;;5015649;28;20018;-51
2024/02/01 01:36:33;;;;;;;3.88;2.60;;;18.90;53.30;;;;;;5018896;28;20509;-50
2024/02/01 01:38:58;;;;;;;2.78;2.42;;;18.80;53.30;;;;;;5015179;28;20026;-50
2024/02/01 01:41:24;;;;;;;3.20;2.55;;;18.80;53.40;;;;;;5016462;28;20030;-51
2024/02/01 01:43:49;;;;;;;3.50;2.47;;;18.80;53.40;;;;;;5020816;28;20038;-50
2024/02/01 01:46:15;;;;;;;3.63;2.45;;;18.80;53.40;;;;;;5014426;28;20490;-51
2024/02/01 01:48:41;;;;;;;2.63;2.33;;;18.80;53.30;;;;;;5015254;28;20034;-51
2024/02/01 01:51:07;;;;;;;2.58;2.10;;;18.80;53.30;;;;;;5016013;28;20033;-49
2024/02/01 01:53:35;;;;;;;3.42;2.70;;;18.80;53.30;;;;;;5014735;28;20456;-49
2024/02/01 01:56:01;;;;;;;4.30;2.17;;;18.80;53.30;;;;;;5011729;28;22302;-51
2024/02/01 01:58:28;;;;;;;2.50;2.30;;;18.90;53.30;;;;;;5018046;28;20037;-48
2024/02/01 02:00:55;;;;;;;3.28;2.03;;;18.80;53.20;;;;;;5012087;28;20864;-49
2024/02/01 02:03:28;;;;;;;3.67;2.42;;;18.80;53.10;;;;;;5006225;28;20096;-49
2024/02/01 02:05:54;;;;;;;2.67;2.13;;;18.80;53.10;;;;;;5013568;28;20700;-50
2024/02/01 02:08:21;;;;;;;2.45;2.10;;;18.90;53.10;;;;;;5015429;28;20040;-48
2024/02/01 02:10:47;;;;;;;2.65;2.20;;;18.90;53.10;;;;;;5008763;28;20033;-48
2024/02/01 02:13:13;;;;;;;2.63;2.33;;;18.90;53.10;;;;;;5019643;28;20037;-50
2024/02/01 02:15:38;;;;;;;2.67;2.25;;;18.90;53.00;;;;;;5014265;28;20041;-49
2024/02/01 02:18:09;;;;;;;3.70;2.20;;;18.90;53.00;;;;;;5018903;28;20125;-48
2024/02/01 02:20:37;;;;;;;3.17;2.15;;;18.90;53.00;;;;;;5014860;28;20036;-49
2024/02/01 02:23:03;;;;;;;2.78;2.28;;;18.90;52.90;;;;;;5018138;28;20045;-50
2024/02/01 02:25:28;;;;;;;2.35;2.13;;;18.90;52.90;;;;;;5012243;28;20123;-49
2024/02/01 02:27:54;;;;;;;3.38;2.42;;;18.90;52.90;;;;;;5014320;28;20574;-48
2024/02/01 02:30:20;;;;;;;3.28;2.22;;;18.90;52.90;;;;;;4996269;28;20042;-50
2024/02/01 02:32:46;;;;;;;2.05;1.85;;;18.90;52.90;;;;;;5015314;28;20025;-50
2024/02/01 02:35:13;;;;;;;3.00;2.25;;;19.00;52.90;;;;;;5016226;28;20034;-50
2024/02/01 02:37:49;;;;;;;2.30;1.73;;;19.00;52.90;;;;;;5012241;28;20101;-48
2024/02/01 02:40:17;;;;;;;2.72;1.80;;;18.90;52.80;;;;;;5015483;28;20033;-48
2024/02/01 02:42:43;;;;;;;2.58;1.85;;;19.00;52.80;;;;;;5020189;28;20041;-49
2024/02/01 02:45:10;;;;;;;3.15;2.15;;;19.00;52.80;;;;;;5011510;28;20455;-49
2024/02/01 02:47:36;;;;;;;2.38;2.00;;;19.00;52.80;;;;;;5015474;28;20056;-50
2024/02/01 02:50:01;;;;;;;2.33;1.77;;;19.00;52.80;;;;;;5015061;28;20057;-50
2024/02/01 02:52:27;;;;;;;2.22;1.90;;;19.00;52.80;;;;;;5007718;28;20021;-49
2024/02/01 02:54:52;;;;;;;2.70;2.05;;;19.00;52.80;;;;;;5012766;28;20021;-49
2024/02/01 02:57:18;;;;;;;2.20;1.92;;;19.00;52.80;;;;;;5014262;28;20029;-47
2024/02/01 02:59:44;;;;;;;3.35;1.85;;;19.00;52.80;;;;;;5010833;28;20041;-50
2024/02/01 03:02:10;;;;;;;2.55;2.05;;;19.00;53.40;;;;;;5018082;28;20046;-51
2024/02/01 03:04:36;;;;;;;2.17;1.70;;;19.00;52.80;;;;;;5015492;28;20080;-49
2024/02/01 03:07:01;;;;;;;2.33;2.00;;;19.00;52.70;;;;;;5010047;28;22164;-55
2024/02/01 03:09:27;;;;;;;1.73;1.58;;;19.00;52.70;;;;;;5017595;28;20036;-46
2024/02/01 03:11:53;;;;;;;2.30;1.75;;;19.00;52.60;;;;;;5013655;28;20136;-48
2024/02/01 03:14:18;;;;;;;2.65;1.77;;;19.10;52.60;;;;;;5003237;28;20392;-52
2024/02/01 03:16:44;;;;;;;2.80;1.85;;;19.10;52.60;;;;;;5014144;28;20057;-49
2024/02/01 03:19:11;;;;;;;1.98;1.63;;;19.10;52.60;;;;;;5017961;28;20029;-46
2024/02/01 03:21:36;;;;;;;2.85;1.92;;;19.10;52.60;;;;;;5010209;28;20116;-53
2024/02/01 03:24:03;;;;;;;2.13;1.50;;;19.10;52.60;;;;;;5019268;28;20128;-55
2024/02/01 03:26:34;;;;;;;3.03;2.10;;;19.10;52.60;;;;;;5012063;28;20442;-53
2024/02/01 03:29:01;;;;;;;2.17;1.60;;;19.10;52.60;;;;;;5015712;28;20034;-48
2024/02/01 03:31:33;;;;;;;1.92;1.60;;;19.10;52.60;;;;;;5013109;28;20045;-54
2024/02/01 03:34:05;;;;;;;2.08;1.60;;;19.10;52.60;;;;;;5018231;28;20057;-52
2024/02/01 03:36:32;;;;;;;2.05;1.55;;;19.10;52.60;;;;;;5009214;28;20585;-56
2024/02/01 03:38:58;;;;;;;2.30;1.65;;;19.10;52.50;;;;;;5018115;28;20033;-53
2024/02/01 03:41:24;;;;;;;2.45;1.80;;;19.10;52.60;;;;;;5011226;28;20174;-50
2024/02/01 03:43:49;;;;;;;2.05;1.60;;;19.10;52.60;;;;;;4996489;28;20095;-47
2024/02/01 03:46:15;;;;;;;2.10;1.90;;;19.10;52.60;;;;;;4998106;28;20037;-49
2024/02/01 03:48:41;;;;;;;2.03;1.58;;;19.10;52.60;;;;;;5012969;28;20037;-57
2024/02/01 03:51:07;;;;;;;1.80;1.58;;;19.10;52.60;;;;;;5017417;28;20439;-53
2024/02/01 03:53:35;;;;;;;2.15;1.83;;;19.10;52.60;;;;;;5015528;28;21375;-52
2024/02/01 03:56:03;;;;;;;2.72;2.00;;;19.10;52.60;;;;;;5010108;28;20138;-48
2024/02/01 03:58:28;;;;;;;1.88;1.42;;;19.10;52.60;;;;;;5013955;28;20068;-49
2024/02/01 04:00:59;;;;;;;1.67;1.58;;;19.10;52.60;;;;;;5015718;28;20061;-52
2024/02/01 04:03:24;;;;;;;1.65;1.50;;;19.10;53.20;;;;;;5007165;28;20040;-51
2024/02/01 04:05:50;;;;;;;3.38;1.75;;;19.10;52.60;;;;;;5013364;28;20046;-52
2024/02/01 04:08:19;;;;;;;1.77;1.30;;;19.10;52.60;;;;;;5017027;28;20036;-49
2024/02/01 04:10:45;;;;;;;2.35;1.67;;;19.10;52.60;;;;;;5010554;28;20087;-49
2024/02/01 04:13:11;;;;;;;1.85;1.60;;;19.10;52.60;;;;;;5019577;28;20033;-51
2024/02/01 04:15:37;;;;;;;1.30;1.20;;;19.10;52.60;;;;;;5012404;28;20037;-51
2024/02/01 04:18:04;;;;;;;1.85;1.50;;;19.20;52.60;;;;;;5009359;28;20100;-53
2024/02/01 04:20:33;;;;;;;1.92;1.52;;;19.10;52.60;;;;;;5012312;28;20034;-48
2024/02/01 04:22:59;;;;;;;2.35;1.33;;;19.10;53.20;;;;;;5017883;28;20530;-51
2024/02/01 04:25:25;;;;;;;1.60;1.48;;;19.10;52.60;;;;;;4993403;28;20038;-48
2024/02/01 04:27:51;;;;;;;2.38;1.50;;;19.10;52.60;;;;;;5016686;28;20038;-49
2024/02/01 04:30:18;;;;;;;1.45;1.15;;;19.10;52.50;;;;;;5018980;28;20728;-52
2024/02/01 04:32:45;;;;;;;3.97;1.30;;;19.10;52.50;;;;;;5010356;28;20114;-47
2024/02/01 04:35:12;;;;;;;1.17;1.00;;;19.20;52.60;;;;;;5022282;28;20040;-48
2024/02/01 04:37:38;;;;;;;1.73;1.52;;;19.10;52.50;;;;;;5010808;28;20080;-47
2024/02/01 04:40:05;;;;;;;1.85;1.30;;;19.20;52.60;;;;;;5013510;28;20029;-49
2024/02/01 04:42:31;;;;;;;1.35;1.10;;;19.20;52.60;;;;;;5018863;28;20077;-50
2024/02/01 04:44:58;;;;;;;1.70;1.20;;;19.20;52.50;;;;;;5015466;28;20566;-49
2024/02/01 04:47:25;;;;;;;2.00;1.30;;;19.20;52.50;;;;;;5012605;28;20097;-52
2024/02/01 04:49:51;;;;;;;1.65;1.30;;;19.20;52.50;;;;;;5016320;28;20397;-49
2024/02/01 04:52:16;;;;;;;1.25;1.15;;;19.20;52.50;;;;;;5012685;28;20025;-53
2024/02/01 04:54:42;;;;;;;1.42;1.20;;;19.20;52.40;;;;;;5016990;28;20037;-52
2024/02/01 04:57:13;;;;;;;1.85;1.27;;;19.20;52.50;;;;;;5018292;28;20048;-49
2024/02/01 04:59:44;;;;;;;1.80;1.33;;;19.20;52.40;;;;;;5002224;28;20084;-48
2024/02/01 05:02:14;;;;;;;2.45;1.38;;;19.20;52.40;;;;;;4989831;28;20045;-51
2024/02/01 05:04:40;;;;;;;1.65;1.10;;;19.20;52.40;;;;;;5016069;28;20070;-52
2024/02/01 05:07:06;;;;;;;1.17;1.08;;;19.20;52.40;;;;;;5010054;28;20064;-52
2024/02/01 05:09:33;;;;;;;1.90;1.30;;;19.30;52.40;;;;;;5022468;28;20041;-52
2024/02/01 05:11:58;;;;;;;1.67;1.08;;;19.30;52.40;;;;;;5015626;28;20041;-55
2024/02/01 05:14:24;;;;;;;1.60;1.15;;;19.30;52.30;;;;;;5011480;28;20030;-53
2024/02/01 05:16:50;;;;;;;1.27;1.17;;;19.30;52.30;;;;;;5021371;28;20045;-51
2024/02/01 05:19:16;;;;;;;1.27;1.00;;;19.30;52.30;;;;;;5004467;28;20034;-52
2024/02/01 05:21:42;;;;;;;4.28;1.33;;;19.30;52.30;;;;;;5009831;28;20041;-50
2024/02/01 05:24:08;;;;;;;1.23;1.00;;;19.30;52.20;;;;;;5020345;28;20037;-52
2024/02/01 05:26:37;;;;;;;2.15;1.23;;;19.30;52.20;;;;;;5012734;28;20049;-49
2024/02/01 05:29:02;;;;;;;0.98;0.90;;;19.40;52.30;;;;;;5011144;28;20465;-52
2024/02/01 05:31:29;;;;;;;2.10;1.27;;;19.40;52.20;;;;;;5018836;28;20075;-53
2024/02/01 05:33:54;;;;;;;1.70;0.90;;;19.40;52.20;;;;;;5010995;28;20034;-47
2024/02/01 05:36:20;;;;;;;1.40;1.13;;;19.40;52.20;;;;;;5015524;28;20168;-50
2024/02/01 05:38:46;;;;;;;1.38;1.00;;;19.40;52.10;;;;;;5019413;28;20030;-53
2024/02/01 05:41:12;;;;;;;1.77;1.08;;;19.40;52.10;;;;;;5014274;28;20463;-52
2024/02/01 05:43:41;;;;;;;0.77;0.77;;;19.40;52.10;;;;;;5009411;28;20511;-50
2024/02/01 05:46:14;;;;;;;1.13;0.93;;;19.40;52.00;;;;;;5016298;28;20527;-54
2024/02/01 05:48:40;;;;;;;1.08;0.90;;;19.50;52.10;;;;;;5009444;28;20196;-49
2024/02/01 05:51:06;;;;;;;1.48;1.02;;;19.50;52.00;;;;;;5015056;28;20785;-53
2024/02/01 05:53:32;;;;;;;1.00;0.82;;;19.50;52.00;;;;;;5015519;28;20034;-48
2024/02/01 05:55:57;;;;;;;1.80;1.02;;;19.50;52.00;;;;;;5013170;28;20033;-51
2024/02/01 05:58:23;;;;;;;1.15;0.80;;;19.50;51.90;;;;;;5014476;28;20529;-49
2024/02/01 06:00:48;;;;;;;1.55;1.10;;;19.50;52.00;;;;;;4998045;28;20041;-49
2024/02/01 06:03:14;;;;;;;1.10;0.88;;;19.60;51.90;;;;;;5007951;28;20601;-53
2024/02/01 06:05:39;;;;;;;1.20;1.10;;;19.60;51.90;;;;;;5014167;28;20038;-51
2024/02/01 06:08:05;;;;;;;1.27;0.77;;;19.50;51.90;;;;;;5014464;28;20095;-49
2024/02/01 06:10:31;;;;;;;0.82;0.70;;;19.50;51.90;;;;;;5006780;28;20041;-50
2024/02/01 06:12:56;;;;;;;1.35;0.88;;;19.60;51.90;;;;;;5017736;28;20038;-48
2024/02/01 06:15:22;;;;;;;1.38;1.05;;;19.60;51.90;;;;;;5016148;28;20372;-52
2024/02/01 06:17:47;;;;;;;1.35;1.08;;;19.60;51.90;;;;;;5005753;28;20053;-50
2024/02/01 06:20:13;;;;;;;1.67;1.10;;;19.50;51.90;;;;;;5019421;28;20029;-49
2024/02/01 06:22:38;;;;;;;1.38;0.98;;;19.60;51.90;;;;;;5017664;28;20498;-50
2024/02/01 06:25:05;;;;;;;1.08;0.98;;;19.50;51.80;;;;;;5007949;28;20049;-52
2024/02/01 06:27:31;;;;;;;1.15;0.88;;;19.60;51.90;;;;;;5020097;28;20037;-53
2024/02/01 06:30:00;;;;;;;1.65;1.13;;;19.50;51.90;;;;;;4989389;28;20042;-48
2024/02/01 06:32:26;;;;;;;0.70;0.70;;;19.60;51.90;;;;;;5007518;28;20046;-49
2024/02/01 06:34:57;;;;;;;0.80;0.80;;;19.50;51.90;;;;;;5011929;28;20667;-49
2024/02/01 06:37:28;;;;;;;1.00;0.90;;;19.50;52.00;;;;;;5013598;28;20034;-53
2024/02/01 06:40:10;;;;;;;1.48;0.95;;;19.50;52.00;;;;;;5009811;28;20033;-48
2024/02/01 06:42:54;;;;;;;0.85;0.70;;;19.50;52.00;;;;;;5015289;28;20045;-49
2024/02/01 06:45:32;;;;;;;1.20;0.90;;;19.50;52.10;;;;;;5009079;28;20200;-54
2024/02/01 06:48:10;;;;;;;1.45;0.73;;;19.40;52.10;;;;;;5011309;28;20045;-49
2024/02/01 06:53:20;;;;;;;1.23;0.80;;;19.50;52.20;;;;;;5013429;28;20045;-48
2024/02/01 06:55:57;;;;;;;1.33;1.08;;;19.40;52.20;;;;;;5013272;28;20055;-49
2024/02/01 07:01:24;;;;;;;1.10;0.70;;;19.40;52.30;;;;;;5010289;28;20035;-50
2024/02/01 07:03:56;;;;;;;1.55;0.70;;;19.40;52.30;;;;;;5012545;28;20507;-49
2024/02/01 07:06:33;;;;;;;1.90;0.82;;;19.40;52.30;;;;;;5004561;28;20836;-51
2024/02/01 07:09:16;;;;;;;2.05;1.05;;;19.30;52.30;;;;;;5013989;28;20450;-49
2024/02/01 07:11:58;;;;;;;1.00;0.80;;;19.30;52.30;;;;;;5013100;28;20091;-52
2024/02/01 07:14:25;;;;;;;1.23;1.00;;;19.30;52.30;;;;;;5006474;28;20514;-53
2024/02/01 07:16:55;;;;;;;1.83;0.93;;;19.30;52.40;;;;;;5006282;28;20052;-52
2024/02/01 08:00:08;;;;;;;4.07;1.90;;;19.00;53.00;;;;;;5005848;28;20442;-50
2024/02/01 08:02:49;;;;;;;4.22;2.13;;;19.00;53.20;;;;;;5007629;28;20911;-48
2024/02/01 08:08:05;;;;;;;2.85;1.75;;;18.90;53.30;;;;;;5009602;28;20088;-52
2024/02/01 08:10:31;;;;;;;6.18;2.22;;;18.80;54.00;;;;;;5009800;28;20355;-47
2024/02/01 08:13:05;;;;;;;4.57;2.17;;;18.80;53.40;;;;;;5007398;28;20029;-47
2024/02/01 08:15:31;;;;;;;3.70;2.13;;;18.80;53.50;;;;;;5007758;28;20766;-50
2024/02/01 08:17:57;;;;;;;4.53;2.38;;;18.80;53.70;;;;;;5007822;28;20736;-50
2024/02/01 08:20:23;;;;;;;3.60;2.08;;;18.70;53.50;;;;;;5005813;28;20121;-49
2024/02/01 08:22:49;;;;;;;4.95;2.10;;;18.80;53.60;;;;;;5008524;28;20700;-52
2024/02/01 08:25:16;;;;;;;4.20;1.63;;;18.70;53.50;;;;;;5009496;28;20130;-52
2024/02/01 08:27:49;;;;;;;4.15;2.08;;;18.70;53.60;;;;;;5002350;28;20045;-49
2024/02/01 08:30:19;;;;;;;3.60;1.85;;;18.70;53.60;;;;;;5006977;28;20041;-49
2024/02/01 08:32:48;;;;;;;4.57;2.13;;;18.70;53.60;;;;;;5000310;28;20034;-51
2024/02/01 08:35:14;;;;;;;3.65;2.03;;;18.70;53.60;;;;;;4974532;28;20053;-50
2024/02/01 08:37:40;;;;;;;3.33;2.10;;;18.70;53.60;;;;;;5002100;28;20503;-49
2024/02/01 08:40:16;;;;;;;3.03;1.70;;;18.70;53.60;;;;;;5005711;28;20109;-50
2024/02/01 08:42:45;;;;;;;3.10;1.95;;;18.70;53.60;;;;;;5006782;28;21001;-51
2024/02/01 08:45:11;;;;;;;3.65;2.05;;;18.60;53.60;;;;;;5000986;28;20157;-46
2024/02/01 08:47:37;;;;;;;3.60;2.08;;;18.60;53.60;;;;;;5005562;28;20035;-51
2024/02/01 08:50:06;;;;;;;2.50;2.03;;;18.60;53.60;;;;;;5010671;28;20555;-48
2024/02/01 08:52:45;;;;;;;4.32;2.38;;;18.60;53.60;;;;;;5009550;28;20041;-49
2024/02/01 08:55:15;;;;;;;4.25;2.17;;;18.60;53.60;;;;;;5025439;23;20041;-49
2024/02/01 08:57:42;;;;;;;3.35;1.92;;;18.70;53.60;;;;;;4996923;28;20037;-52
2024/02/01 09:00:31;;;;;;;4.57;2.10;;;18.60;53.40;;;;;;5014394;28;20022;-50
2024/02/01 09:03:15;;;;;;;3.58;1.73;;;18.70;53.40;;;;;;5011689;28;20599;-49
2024/02/01 09:05:46;;;;;;;3.17;2.03;;;18.80;53.30;;;;;;5015929;28;20030;-50
2024/02/01 09:08:35;;;;;;;2.83;1.55;;;18.80;53.10;;;;;;5017102;28;20026;-55
2024/02/01 09:11:09;;;;;;;2.70;1.67;;;18.90;52.90;;;;;;5016150;28;20029;-52
2024/02/01 09:13:35;;;;;;;3.35;1.90;;;19.00;52.80;;;;;;5018511;28;20044;-49
2024/02/01 09:16:01;;;;;;;3.35;1.90;;;19.10;52.50;;;;;;5016517;28;20026;-52
2024/02/01 09:18:26;;;;;;;3.70;1.92;;;19.20;52.30;;;;;;5018323;28;20033;-49
2024/02/01 09:20:52;;;;;;;3.30;1.80;;;19.30;52.20;;;;;;5020121;28;21067;-48
2024/02/01 09:23:18;;;;;;;3.05;1.70;;;19.40;52.00;;;;;;5011717;28;20041;-47
2024/02/01 09:25:44;;;;;;;3.45;1.85;;;19.50;51.90;;;;;;5019896;28;20033;-48
2024/02/01 09:28:14;;;;;;;3.65;1.65;;;19.60;51.80;;;;;;5016514;28;20083;-49
2024/02/01 09:30:47;;;;;;;5.60;2.17;;;19.60;51.60;;;;;;5015911;28;20026;-53
2024/02/01 09:33:17;;;;;;;2.58;1.60;;;19.70;51.50;;;;;;5017382;28;20030;-50
2024/02/01 09:35:44;;;;;;;1.98;1.48;;;19.80;51.40;;;;;;5017661;28;20371;-50
2024/02/01 09:38:09;;;;;;;3.65;1.75;;;19.80;51.30;;;;;;5012717;28;20041;-48
2024/02/01 09:40:41;;;;;;;2.47;1.50;;;19.90;51.20;;;;;;5016506;28;20088;-51
2024/02/01 09:43:17;;;;;;;7.93;1.70;;;19.90;51.10;;;;;;5013999;28;20037;-50
2024/02/01 09:45:43;;;;;;;2.75;1.48;;;20.00;51.10;;;;;;5013227;28;20741;-50
2024/02/01 09:48:16;;;;;;;3.08;2.15;;;20.00;51.10;;;;;;5018569;28;20053;-49
2024/02/01 09:50:49;;;;;;;3.42;1.65;;;20.10;51.10;;;;;;5013360;28;20049;-53
2024/02/01 09:53:14;;;;;;;2.08;1.33;;;20.00;51.00;;;;;;4987444;28;20060;-50
2024/02/01 09:55:42;;;;;;;3.40;1.55;;;20.00;51.00;;;;;;5019219;28;20061;-48
2024/02/01 09:58:08;;;;;;;2.30;1.50;;;20.10;51.10;;;;;;5012530;28;20068;-49
2024/02/01 10:00:33;;;;;;;2.55;1.40;;;20.00;51.10;;;;;;5018628;28;20053;-49
2024/02/01 10:02:59;;;;;;;1.98;1.50;;;20.00;51.10;;;;;;4998370;28;20492;-48
2024/02/01 10:05:28;;;;;;;2.58;1.42;;;20.00;51.20;;;;;;5012896;28;20029;-49
2024/02/01 10:07:55;;;;;;;1.85;1.10;;;20.00;51.30;;;;;;5000314;28;21181;-52
2024/02/01 10:10:21;;;;;;;1.55;1.33;;;19.90;51.30;;;;;;5017198;28;20033;-47
2024/02/01 10:12:47;;;;;;;3.00;1.67;;;19.90;51.40;;;;;;5012820;28;20022;-57
2024/02/01 10:15:19;;;;;;;1.73;1.63;;;19.80;51.40;;;;;;5018754;28;20057;-55
2024/02/01 10:17:51;;;;;;;2.60;1.40;;;19.80;51.50;;;;;;5015856;28;20053;-53
2024/02/01 10:20:34;;;;;;;1.98;1.30;;;19.80;51.60;;;;;;5013607;28;20029;-47
2024/02/01 10:23:04;;;;;;;2.28;1.50;;;19.70;51.60;;;;;;5034813;23;20029;-50
2024/02/01 10:25:36;;;;;;;4.03;1.50;;;19.70;51.70;;;;;;5032260;28;20029;-54
2024/02/01 10:28:09;;;;;;;3.08;1.35;;;19.70;51.80;;;;;;5033919;28;20470;-52
2024/02/01 10:30:45;;;;;;;1.58;0.93;;;19.60;51.80;;;;;;5036704;28;20021;-51
2024/02/01 10:33:13;;;;;;;2.22;1.30;;;19.60;51.90;;;;;;5021018;28;20548;-54
2024/02/01 10:35:40;;;;;;;1.65;1.00;;;19.60;51.90;;;;;;5038744;28;20040;-50
2024/02/01 10:38:12;;;;;;;1.35;1.20;;;19.60;51.90;;;;;;5035535;28;20405;-53
2024/02/01 10:40:44;;;;;;;1.42;1.13;;;19.60;52.00;;;;;;5032535;28;20029;-50
2024/02/01 10:43:17;;;;;;;1.70;1.30;;;19.60;52.00;;;;;;5032809;28;20048;-53
2024/02/01 10:45:45;;;;;;;2.20;1.27;;;19.60;52.10;;;;;;5034627;28;20041;-47
2024/02/01 10:48:12;;;;;;;1.88;1.38;;;19.50;52.00;;;;;;5032252;28;20697;-51
2024/02/01 10:50:39;;;;;;;1.55;1.10;;;19.60;52.00;;;;;;5033744;28;20807;-50
2024/02/01 10:53:07;;;;;;;1.77;1.50;;;19.50;52.00;;;;;;5034874;28;20033;-50
2024/02/01 10:55:39;;;;;;;3.60;1.20;;;19.50;52.20;;;;;;5032093;28;20104;-47
2024/02/01 10:58:12;;;;;;;2.38;1.20;;;19.40;52.20;;;;;;5034031;28;20056;-49
2024/02/01 11:00:42;;;;;;;1.75;1.02;;;19.40;52.30;;;;;;5031732;28;20053;-54
2024/02/01 11:03:15;;;;;;;1.73;1.15;;;19.40;52.30;;;;;;5031542;28;20102;-50
2024/02/01 11:05:41;;;;;;;1.15;0.98;;;19.40;52.40;;;;;;5036610;28;20021;-53
2024/02/01 11:08:17;;;;;;;1.92;1.17;;;19.40;52.50;;;;;;5011553;28;20029;-49
2024/02/01 11:11:00;;;;;;;;;;;19.40;52.50;;;;;;5013620;28;20706;-53
2024/02/01 11:13:30;;;;;;;1.83;1.33;;;19.30;53.10;;;;;;5031194;28;19912;-49
2024/02/01 11:15:56;;;;;;;1.27;0.90;;;19.30;52.50;;;;;;5031266;28;20042;-48
2024/02/01 11:18:22;;;;;;;1.23;1.10;;;19.30;52.50;;;;;;5036204;28;20098;-47
2024/02/01 11:20:56;;;;;;;1.55;0.88;;;19.30;52.50;;;;;;5017347;28;21025;-49
2024/02/01 11:23:21;;;;;;;2.20;1.23;;;19.30;52.50;;;;;;5030481;28;20495;-47
2024/02/01 11:25:49;;;;;;;1.65;1.23;;;19.30;52.50;;;;;;5035275;28;20048;-52
2024/02/01 11:28:28;;;;;;;1.55;1.10;;;19.30;52.50;;;;;;5035427;28;20087;-51
2024/02/01 11:30:54;;;;;;;1.80;1.23;;;19.30;52.50;;;;;;5030037;28;20025;-50
2024/02/01 11:33:25;;;;;;;1.25;0.70;;;19.30;52.60;;;;;;5036428;28;20051;-48
2024/02/01 11:35:55;;;;;;;2.40;1.10;;;19.20;52.50;;;;;;5032670;28;20032;-55
2024/02/01 11:38:20;;;;;;;1.88;0.90;;;19.20;52.60;;;;;;5033723;28;20113;-48
2024/02/01 11:40:46;;;;;;;2.83;0.98;;;19.20;52.70;;;;;;5032173;28;20116;-55
2024/02/01 11:43:11;;;;;;;1.02;0.85;;;19.20;52.70;;;;;;5034127;28;20060;-51
2024/02/01 11:45:37;;;;;;;1.17;0.82;;;19.20;52.60;;;;;;5012074;28;20038;-48
2024/02/01 11:48:04;;;;;;;3.00;1.30;;;19.20;52.60;;;;;;5029481;28;20029;-48
2024/02/01 11:50:30;;;;;;;1.95;1.20;;;19.20;52.60;;;;;;5025108;28;20029;-54
2024/02/01 11:53:09;;;;;;;1.40;1.10;;;19.20;52.60;;;;;;5030288;28;20102;-49
2024/02/01 11:55:35;;;;;;;1.58;0.90;;;19.20;52.70;;;;;;5031348;28;20021;-50
2024/02/01 11:58:01;;;;;;;2.25;1.45;;;19.10;52.70;;;;;;5029927;28;20075;-51
2024/02/01 12:00:27;;;;;;;1.13;0.80;;;19.10;52.70;;;;;;5028142;28;20029;-48
2024/02/01 12:02:53;;;;;;;1.52;1.27;;;19.10;52.70;;;;;;5032271;28;20528;-51
2024/02/01 12:05:20;;;;;;;1.45;1.08;;;19.10;52.80;;;;;;5030473;28;20037;-47
2024/02/01 12:07:47;;;;;;;1.73;0.85;;;19.10;52.80;;;;;;5017124;28;20056;-56
2024/02/01 12:10:16;;;;;;;1.73;1.08;;;19.10;52.80;;;;;;5022366;28;20037;-48
2024/02/01 12:12:44;;;;;;;1.30;0.73;;;19.10;52.80;;;;;;5016240;28;20494;-55
2024/02/01 12:15:11;;;;;;;1.50;1.00;;;19.10;52.70;;;;;;5031773;28;20049;-52
2024/02/01 12:17:42;;;;;;;1.08;0.70;;;19.10;52.70;;;;;;5033052;28;20029;-52
2024/02/01 12:20:12;;;;;;;1.05;0.70;;;19.10;52.60;;;;;;5033291;28;20115;-48
2024/02/01 12:22:37;;;;;;;1.17;0.70;;;19.10;53.30;;;;;;5037079;28;20501;-52
2024/02/01 12:25:03;;;;;;;1.33;0.60;;;19.10;52.70;;;;;;5032308;28;20049;-51
2024/02/01 12:27:29;;;;;;;1.55;1.00;;;19.00;52.70;;;;;;5030545;28;20113;-52
2024/02/01 12:29:55;;;;;;;0.65;0.50;;;19.10;52.80;;;;;;5032957;28;20148;-50
2024/02/01 12:32:21;;;;;;;2.35;0.80;;;19.10;52.70;;;;;;5034745;28;20025;-53
2024/02/01 12:34:47;;;;;;;1.20;0.70;;;19.10;52.70;;;;;;5033834;28;20434;-51
2024/02/01 12:37:14;;;;;;;0.88;0.60;;;19.10;52.70;;;;;;5033615;28;20025;-54
2024/02/01 12:39:42;;;;;;;1.08;0.80;;;19.10;52.70;;;;;;5032589;28;20081;-47
2024/02/01 12:42:13;;;;;;;0.93;0.60;;;19.00;52.80;;;;;;5029471;28;20059;-50
2024/02/01 12:44:39;;;;;;;1.77;0.82;;;19.00;52.80;;;;;;5025570;28;20102;-53
2024/02/01 12:47:06;;;;;;;1.55;0.93;;;19.00;52.90;;;;;;5028660;28;20040;-54
2024/02/01 12:49:31;;;;;;;1.17;0.82;;;18.90;52.90;;;;;;5032382;28;20497;-52
2024/02/01 12:52:04;;;;;;;1.10;0.70;;;19.00;53.00;;;;;;5025046;28;20041;-53
2024/02/01 12:54:39;;;;;;;1.15;0.75;;;18.90;53.00;;;;;;5030784;28;20140;-49
2024/02/01 12:57:07;;;;;;;1.05;0.70;;;18.90;53.00;;;;;;5024834;28;20917;-55
2024/02/01 12:59:36;;;;;;;0.95;0.73;;;18.90;53.10;;;;;;5024466;28;20040;-53
2024/02/01 13:02:03;;;;;;;2.47;0.90;;;18.90;53.10;;;;;;5017356;28;20057;-47
2024/02/01 13:04:28;;;;;;;1.10;1.00;;;18.90;53.10;;;;;;5019490;28;20406;-52
2024/02/01 13:06:54;;;;;;;1.00;0.75;;;18.80;53.20;;;;;;5019333;28;20037;-51
2024/02/01 13:09:29;;;;;;;0.90;0.55;;;18.80;53.10;;;;;;5014250;28;20044;-53
2024/02/01 13:11:58;;;;;;;0.95;0.70;;;18.80;53.20;;;;;;5022957;28;20048;-49
2024/02/01 13:14:30;;;;;;;1.10;0.70;;;18.90;53.10;;;;;;5031206;28;20056;-51
2024/02/01 13:16:59;;;;;;;1.08;0.60;;;18.80;53.00;;;;;;5029815;28;20049;-49
2024/02/01 13:19:24;;;;;;;0.88;0.70;;;18.80;53.00;;;;;;5028365;28;20044;-50
2024/02/01 13:21:51;;;;;;;0.95;0.80;;;18.90;53.10;;;;;;5027479;28;20474;-48
2024/02/01 13:24:16;;;;;;;1.13;0.90;;;18.80;53.00;;;;;;5025765;28;20037;-50
2024/02/01 13:26:42;;;;;;;1.30;0.80;;;18.80;53.00;;;;;;5023063;28;20391;-48
2024/02/01 13:29:13;;;;;;;1.25;0.65;;;18.80;53.00;;;;;;5025747;28;20521;-49
2024/02/01 13:31:40;;;;;;;1.20;0.80;;;18.80;53.00;;;;;;5022017;28;20046;-50
2024/02/01 13:34:06;;;;;;;1.33;0.90;;;18.80;53.10;;;;;;5030932;28;20026;-47
2024/02/01 13:36:32;;;;;;;1.65;0.98;;;18.80;53.00;;;;;;5026927;28;20037;-49
2024/02/01 13:38:57;;;;;;;1.30;0.95;;;18.80;53.00;;;;;;5027213;28;20582;-48
2024/02/01 13:41:22;;;;;;;0.70;0.60;;;18.80;53.00;;;;;;5025247;28;20021;-51